GIA349 WADD-WARR
Flight info
| Callsign | GIA349 |
|---|---|
| Flight time | 0h 40m |
| Altitude | 22000 |
| Route | OKANG |
| Aircraft | B738/M-SDE2E3FGHIRWXY/LB1 |
Departure
| Time | 2026-05-09 02:15 |
|---|---|
| Airport | Denpasar I Gusti Ngurah Rai International Airport (WADD) |
Arrival
| Time | 2026-05-09 02:56 |
|---|---|
| Airport | Juanda International Airport (WARR) |
| Time | Latitude | Longitude | Altitude | Speed | Heading |
|---|---|---|---|---|---|
| 2026-05-09 01:46 | -8.74560 | 115.16472 | 31 ft | 0 kts | 357° |
| 2026-05-09 01:46 | -8.74562 | 115.16472 | 32 ft | 0 kts | 358° |
| 2026-05-09 02:05 | -8.74572 | 115.16473 | 32 ft | 3 kts | 358° |
| 2026-05-09 02:05 | -8.74592 | 115.16473 | 31 ft | 3 kts | 358° |
| 2026-05-09 02:06 | -8.74612 | 115.16474 | 31 ft | 3 kts | 358° |
| 2026-05-09 02:06 | -8.74633 | 115.16475 | 31 ft | 3 kts | 358° |
| 2026-05-09 02:06 | -8.74653 | 115.16476 | 31 ft | 3 kts | 358° |
| 2026-05-09 02:07 | -8.74684 | 115.16484 | 29 ft | 3 kts | 297° |
| 2026-05-09 02:07 | -8.74689 | 115.16502 | 30 ft | 3 kts | 269° |
| 2026-05-09 02:07 | -8.74688 | 115.16513 | 31 ft | 1 kts | 268° |
| 2026-05-09 02:07 | -8.74688 | 115.16514 | 31 ft | 0 kts | 268° |
| 2026-05-09 02:09 | -8.74689 | 115.16506 | 31 ft | 2 kts | 268° |
| 2026-05-09 02:10 | -8.74689 | 115.16483 | 31 ft | 5 kts | 269° |
| 2026-05-09 02:10 | -8.74691 | 115.16443 | 31 ft | 7 kts | 267° |
| 2026-05-09 02:10 | -8.74693 | 115.16388 | 32 ft | 9 kts | 267° |
| 2026-05-09 02:10 | -8.74696 | 115.16318 | 32 ft | 11 kts | 268° |
| 2026-05-09 02:11 | -8.74698 | 115.16235 | 32 ft | 13 kts | 268° |
| 2026-05-09 02:11 | -8.74702 | 115.16145 | 32 ft | 13 kts | 265° |
| 2026-05-09 02:11 | -8.74707 | 115.16055 | 32 ft | 13 kts | 267° |
| 2026-05-09 02:11 | -8.74710 | 115.15967 | 32 ft | 12 kts | 268° |
| 2026-05-09 02:12 | -8.74714 | 115.15882 | 32 ft | 12 kts | 268° |
| 2026-05-09 02:12 | -8.74717 | 115.15790 | 32 ft | 15 kts | 268° |
| 2026-05-09 02:12 | -8.74722 | 115.15674 | 31 ft | 17 kts | 268° |
| 2026-05-09 02:12 | -8.74726 | 115.15573 | 31 ft | 13 kts | 268° |
| 2026-05-09 02:13 | -8.74729 | 115.15496 | 31 ft | 8 kts | 268° |
| 2026-05-09 02:13 | -8.74733 | 115.15444 | 31 ft | 7 kts | 257° |
| 2026-05-09 02:13 | -8.74761 | 115.15401 | 31 ft | 8 kts | 216° |
| 2026-05-09 02:13 | -8.74831 | 115.15392 | 28 ft | 13 kts | 180° |
| 2026-05-09 02:14 | -8.74889 | 115.15413 | 28 ft | 8 kts | 121° |
| 2026-05-09 02:14 | -8.74894 | 115.15463 | 28 ft | 9 kts | 88° |
| 2026-05-09 02:14 | -8.74889 | 115.15595 | 28 ft | 39 kts | 88° |
| 2026-05-09 02:14 | -8.74869 | 115.16113 | 28 ft | 106 kts | 87° |
| 2026-05-09 02:15 | -8.74836 | 115.17029 | 66 ft | 153 kts | 89° |
| 2026-05-09 02:15 | -8.74797 | 115.18129 | 735 ft | 147 kts | 87° |
| 2026-05-09 02:15 | -8.74750 | 115.19117 | 1571 ft | 144 kts | 90° |
| 2026-05-09 02:15 | -8.74708 | 115.20182 | 2021 ft | 166 kts | 88° |
| 2026-05-09 02:16 | -8.74656 | 115.21457 | 2282 ft | 196 kts | 88° |
| 2026-05-09 02:16 | -8.74530 | 115.22913 | 2479 ft | 219 kts | 74° |
| 2026-05-09 02:16 | -8.73599 | 115.24209 | 2684 ft | 248 kts | 37° |
| 2026-05-09 02:16 | -8.71905 | 115.24766 | 3172 ft | 266 kts | 11° |
| 2026-05-09 02:17 | -8.70059 | 115.25017 | 3909 ft | 268 kts | 9° |
| 2026-05-09 02:17 | -8.68207 | 115.25256 | 4698 ft | 270 kts | 9° |
| 2026-05-09 02:17 | -8.66332 | 115.25513 | 5409 ft | 274 kts | 9° |
| 2026-05-09 02:17 | -8.64434 | 115.25790 | 6172 ft | 276 kts | 9° |
| 2026-05-09 02:18 | -8.62547 | 115.26079 | 6880 ft | 279 kts | 9° |
| 2026-05-09 02:18 | -8.60614 | 115.26384 | 7589 ft | 283 kts | 9° |
| 2026-05-09 02:18 | -8.58658 | 115.26698 | 8341 ft | 285 kts | 9° |
| 2026-05-09 02:18 | -8.56687 | 115.27018 | 9118 ft | 288 kts | 9° |
| 2026-05-09 02:19 | -8.54693 | 115.27344 | 9889 ft | 292 kts | 9° |
| 2026-05-09 02:19 | -8.52664 | 115.27676 | 10445 ft | 303 kts | 9° |
| 2026-05-09 02:19 | -8.50517 | 115.28028 | 10617 ft | 327 kts | 9° |
| 2026-05-09 02:19 | -8.48224 | 115.28358 | 11116 ft | 337 kts | 2° |
| 2026-05-09 02:20 | -8.45910 | 115.27975 | 11763 ft | 340 kts | 338° |
| 2026-05-09 02:20 | -8.43903 | 115.26706 | 12487 ft | 343 kts | 316° |
| 2026-05-09 02:20 | -8.42280 | 115.24930 | 13200 ft | 346 kts | 311° |
| 2026-05-09 02:20 | -8.40693 | 115.23084 | 13917 ft | 349 kts | 310° |
| 2026-05-09 02:21 | -8.39119 | 115.21232 | 14527 ft | 354 kts | 310° |
| 2026-05-09 02:21 | -8.37503 | 115.19334 | 15203 ft | 357 kts | 309° |
| 2026-05-09 02:21 | -8.35874 | 115.17431 | 15884 ft | 360 kts | 309° |
| 2026-05-09 02:21 | -8.34217 | 115.15503 | 16508 ft | 365 kts | 309° |
| 2026-05-09 02:22 | -8.32553 | 115.13575 | 17116 ft | 370 kts | 309° |
| 2026-05-09 02:22 | -8.30848 | 115.11604 | 17750 ft | 374 kts | 309° |
| 2026-05-09 02:22 | -8.29119 | 115.09612 | 18364 ft | 377 kts | 309° |
| 2026-05-09 02:22 | -8.27378 | 115.07605 | 18899 ft | 381 kts | 309° |
| 2026-05-09 02:23 | -8.25620 | 115.05579 | 19428 ft | 385 kts | 309° |
| 2026-05-09 02:23 | -8.23865 | 115.03558 | 19935 ft | 389 kts | 309° |
| 2026-05-09 02:23 | -8.22070 | 115.01491 | 20409 ft | 394 kts | 309° |
| 2026-05-09 02:23 | -8.20250 | 114.99397 | 20909 ft | 398 kts | 309° |
| 2026-05-09 02:24 | -8.18420 | 114.97290 | 21468 ft | 400 kts | 309° |
| 2026-05-09 02:24 | -8.16577 | 114.95170 | 21904 ft | 403 kts | 309° |
| 2026-05-09 02:24 | -8.14702 | 114.93012 | 21923 ft | 413 kts | 309° |
| 2026-05-09 02:24 | -8.12794 | 114.90816 | 21933 ft | 417 kts | 309° |
| 2026-05-09 02:25 | -8.10887 | 114.88624 | 21915 ft | 414 kts | 309° |
| 2026-05-09 02:25 | -8.09015 | 114.86473 | 21919 ft | 413 kts | 309° |
| 2026-05-09 02:25 | -8.07123 | 114.84298 | 21924 ft | 412 kts | 309° |
| 2026-05-09 02:25 | -8.05231 | 114.82122 | 21925 ft | 412 kts | 309° |
| 2026-05-09 02:26 | -8.03343 | 114.79952 | 21925 ft | 412 kts | 309° |
| 2026-05-09 02:26 | -8.01451 | 114.77777 | 21922 ft | 412 kts | 309° |
| 2026-05-09 02:26 | -7.99558 | 114.75601 | 21922 ft | 413 kts | 309° |
| 2026-05-09 02:26 | -7.97659 | 114.73419 | 21913 ft | 413 kts | 309° |
| 2026-05-09 02:27 | -7.95757 | 114.71233 | 21913 ft | 414 kts | 309° |
| 2026-05-09 02:27 | -7.93854 | 114.69046 | 21913 ft | 414 kts | 309° |
| 2026-05-09 02:27 | -7.91971 | 114.66848 | 21907 ft | 414 kts | 306° |
| 2026-05-09 02:27 | -7.90408 | 114.64418 | 21910 ft | 412 kts | 296° |
| 2026-05-09 02:28 | -7.89283 | 114.61808 | 21914 ft | 410 kts | 285° |
| 2026-05-09 02:28 | -7.88527 | 114.59040 | 21921 ft | 409 kts | 282° |
| 2026-05-09 02:28 | -7.87824 | 114.56262 | 21910 ft | 409 kts | 282° |
| 2026-05-09 02:28 | -7.87122 | 114.53476 | 21905 ft | 410 kts | 282° |
| 2026-05-09 02:29 | -7.86413 | 114.50688 | 21912 ft | 410 kts | 282° |
| 2026-05-09 02:29 | -7.85693 | 114.47896 | 21911 ft | 410 kts | 283° |
| 2026-05-09 02:29 | -7.84970 | 114.45118 | 21913 ft | 410 kts | 283° |
| 2026-05-09 02:29 | -7.84241 | 114.42335 | 21915 ft | 409 kts | 283° |
| 2026-05-09 02:30 | -7.83510 | 114.39557 | 21907 ft | 409 kts | 283° |
| 2026-05-09 02:30 | -7.82788 | 114.36812 | 21921 ft | 409 kts | 283° |
| 2026-05-09 02:30 | -7.82056 | 114.34037 | 21908 ft | 409 kts | 283° |
| 2026-05-09 02:30 | -7.81325 | 114.31263 | 21915 ft | 408 kts | 283° |
| 2026-05-09 02:31 | -7.80595 | 114.28491 | 21930 ft | 408 kts | 283° |
| 2026-05-09 02:31 | -7.79867 | 114.25726 | 21922 ft | 408 kts | 283° |
| 2026-05-09 02:31 | -7.79138 | 114.22960 | 21923 ft | 408 kts | 283° |
| 2026-05-09 02:31 | -7.78409 | 114.20192 | 21923 ft | 408 kts | 283° |
| 2026-05-09 02:32 | -7.77690 | 114.17465 | 21923 ft | 408 kts | 283° |
| 2026-05-09 02:32 | -7.76960 | 114.14694 | 21921 ft | 408 kts | 283° |
| 2026-05-09 02:32 | -7.76230 | 114.11929 | 21925 ft | 408 kts | 283° |
| 2026-05-09 02:32 | -7.75501 | 114.09160 | 21909 ft | 408 kts | 282° |
| 2026-05-09 02:33 | -7.75035 | 114.06346 | 21912 ft | 405 kts | 272° |
| 2026-05-09 02:33 | -7.74906 | 114.03510 | 21914 ft | 405 kts | 270° |
| 2026-05-09 02:33 | -7.74830 | 114.00672 | 21909 ft | 405 kts | 269° |
| 2026-05-09 02:33 | -7.74758 | 113.97891 | 21910 ft | 405 kts | 269° |
| 2026-05-09 02:34 | -7.74670 | 113.95046 | 21920 ft | 405 kts | 270° |
| 2026-05-09 02:34 | -7.74567 | 113.92239 | 21914 ft | 405 kts | 270° |
| 2026-05-09 02:34 | -7.74450 | 113.89393 | 21911 ft | 405 kts | 270° |
| 2026-05-09 02:34 | -7.74327 | 113.86552 | 21914 ft | 405 kts | 270° |
| 2026-05-09 02:35 | -7.74200 | 113.83716 | 21927 ft | 405 kts | 270° |
| 2026-05-09 02:35 | -7.74071 | 113.80873 | 21916 ft | 405 kts | 270° |
| 2026-05-09 02:35 | -7.73943 | 113.78035 | 21923 ft | 405 kts | 270° |
| 2026-05-09 02:35 | -7.73816 | 113.75233 | 21921 ft | 405 kts | 270° |
| 2026-05-09 02:36 | -7.73688 | 113.72396 | 21921 ft | 405 kts | 270° |
| 2026-05-09 02:36 | -7.73559 | 113.69555 | 21916 ft | 405 kts | 270° |
| 2026-05-09 02:36 | -7.73430 | 113.66712 | 21917 ft | 405 kts | 270° |
| 2026-05-09 02:36 | -7.73301 | 113.63868 | 21918 ft | 405 kts | 270° |
| 2026-05-09 02:37 | -7.73172 | 113.61021 | 21916 ft | 405 kts | 270° |
| 2026-05-09 02:37 | -7.73044 | 113.58213 | 21915 ft | 405 kts | 270° |
| 2026-05-09 02:37 | -7.72915 | 113.55376 | 21918 ft | 405 kts | 270° |
| 2026-05-09 02:37 | -7.72601 | 113.52547 | 21909 ft | 407 kts | 280° |
| 2026-05-09 02:38 | -7.71904 | 113.49772 | 21918 ft | 408 kts | 283° |
| 2026-05-09 02:38 | -7.71141 | 113.47018 | 21912 ft | 408 kts | 283° |
| 2026-05-09 02:38 | -7.70378 | 113.44260 | 21909 ft | 405 kts | 283° |
| 2026-05-09 02:38 | -7.69649 | 113.41559 | 21807 ft | 394 kts | 283° |
| 2026-05-09 02:39 | -7.68963 | 113.38944 | 21480 ft | 388 kts | 282° |
| 2026-05-09 02:39 | -7.68285 | 113.36313 | 21034 ft | 385 kts | 282° |
| 2026-05-09 02:39 | -7.67617 | 113.33698 | 20613 ft | 382 kts | 282° |
| 2026-05-09 02:39 | -7.66959 | 113.31117 | 20153 ft | 379 kts | 282° |
| 2026-05-09 02:40 | -7.66303 | 113.28551 | 19704 ft | 377 kts | 283° |
| 2026-05-09 02:40 | -7.65650 | 113.25999 | 19255 ft | 375 kts | 283° |
| 2026-05-09 02:40 | -7.65043 | 113.23443 | 18783 ft | 374 kts | 280° |
| 2026-05-09 02:40 | -7.64526 | 113.20878 | 18326 ft | 373 kts | 279° |
| 2026-05-09 02:41 | -7.64040 | 113.18307 | 17825 ft | 372 kts | 279° |
| 2026-05-09 02:41 | -7.63567 | 113.15786 | 17368 ft | 369 kts | 279° |
| 2026-05-09 02:41 | -7.63087 | 113.13254 | 16919 ft | 366 kts | 279° |
| 2026-05-09 02:41 | -7.62606 | 113.10742 | 16478 ft | 363 kts | 280° |
| 2026-05-09 02:42 | -7.62124 | 113.08251 | 16053 ft | 361 kts | 280° |
| 2026-05-09 02:42 | -7.61805 | 113.06608 | 15770 ft | 359 kts | 280° |
| 2026-05-09 02:42 | -7.61323 | 113.04140 | 15346 ft | 357 kts | 280° |
| 2026-05-09 02:42 | -7.60845 | 113.01693 | 14919 ft | 355 kts | 280° |
| 2026-05-09 02:43 | -7.60222 | 112.98505 | 14358 ft | 353 kts | 280° |
| 2026-05-09 02:43 | -7.59900 | 112.96865 | 14062 ft | 352 kts | 280° |
| 2026-05-09 02:43 | -7.59426 | 112.94443 | 13730 ft | 348 kts | 281° |
| 2026-05-09 02:43 | -7.58970 | 112.92114 | 13528 ft | 339 kts | 281° |
| 2026-05-09 02:44 | -7.58520 | 112.89819 | 13378 ft | 329 kts | 281° |
| 2026-05-09 02:44 | -7.58084 | 112.87590 | 13232 ft | 319 kts | 281° |
| 2026-05-09 02:44 | -7.57660 | 112.85428 | 13094 ft | 310 kts | 281° |
| 2026-05-09 02:44 | -7.57246 | 112.83319 | 12967 ft | 301 kts | 281° |
| 2026-05-09 02:45 | -7.56847 | 112.81281 | 12915 ft | 290 kts | 281° |
| 2026-05-09 02:45 | -7.56462 | 112.79303 | 12906 ft | 286 kts | 281° |
| 2026-05-09 02:45 | -7.56080 | 112.77338 | 12789 ft | 285 kts | 281° |
| 2026-05-09 02:45 | -7.55700 | 112.75387 | 12546 ft | 283 kts | 281° |
| 2026-05-09 02:46 | -7.55320 | 112.73428 | 12191 ft | 285 kts | 281° |
| 2026-05-09 02:46 | -7.54942 | 112.71486 | 11881 ft | 285 kts | 281° |
| 2026-05-09 02:46 | -7.54560 | 112.69529 | 11612 ft | 284 kts | 281° |
| 2026-05-09 02:46 | -7.54179 | 112.67576 | 11333 ft | 283 kts | 281° |
| 2026-05-09 02:47 | -7.53796 | 112.65625 | 10976 ft | 285 kts | 281° |
| 2026-05-09 02:47 | -7.53406 | 112.63640 | 10509 ft | 292 kts | 281° |
| 2026-05-09 02:47 | -7.53008 | 112.61613 | 10062 ft | 297 kts | 281° |
| 2026-05-09 02:47 | -7.52604 | 112.59557 | 9595 ft | 302 kts | 281° |
| 2026-05-09 02:48 | -7.52193 | 112.57466 | 9141 ft | 304 kts | 281° |
| 2026-05-09 02:48 | -7.51781 | 112.55396 | 8895 ft | 299 kts | 283° |
| 2026-05-09 02:48 | -7.50955 | 112.53508 | 8450 ft | 295 kts | 309° |
| 2026-05-09 02:48 | -7.49389 | 112.52215 | 7933 ft | 291 kts | 335° |
| 2026-05-09 02:49 | -7.47460 | 112.51682 | 7369 ft | 288 kts | 356° |
| 2026-05-09 02:49 | -7.45473 | 112.51832 | 6815 ft | 286 kts | 11° |
| 2026-05-09 02:49 | -7.43533 | 112.52188 | 6216 ft | 287 kts | 11° |
| 2026-05-09 02:49 | -7.41562 | 112.52551 | 5615 ft | 287 kts | 11° |
| 2026-05-09 02:50 | -7.39592 | 112.52901 | 5034 ft | 286 kts | 11° |
| 2026-05-09 02:50 | -7.37635 | 112.53240 | 4448 ft | 285 kts | 10° |
| 2026-05-09 02:50 | -7.35687 | 112.53591 | 3893 ft | 283 kts | 15° |
| 2026-05-09 02:50 | -7.34014 | 112.54530 | 3474 ft | 272 kts | 49° |
| 2026-05-09 02:51 | -7.33216 | 112.56145 | 3257 ft | 257 kts | 83° |
| 2026-05-09 02:51 | -7.33492 | 112.57845 | 3096 ft | 243 kts | 116° |
| 2026-05-09 02:51 | -7.34261 | 112.59316 | 2922 ft | 232 kts | 115° |
| 2026-05-09 02:51 | -7.34841 | 112.60792 | 2750 ft | 220 kts | 107° |
| 2026-05-09 02:52 | -7.35253 | 112.62223 | 2598 ft | 206 kts | 104° |
| 2026-05-09 02:52 | -7.35545 | 112.63590 | 2430 ft | 195 kts | 100° |
| 2026-05-09 02:52 | -7.35765 | 112.64901 | 2308 ft | 184 kts | 99° |
| 2026-05-09 02:52 | -7.35965 | 112.66151 | 2116 ft | 178 kts | 99° |
| 2026-05-09 02:53 | -7.36161 | 112.67370 | 1893 ft | 174 kts | 99° |
| 2026-05-09 02:53 | -7.36353 | 112.68566 | 1680 ft | 173 kts | 99° |
| 2026-05-09 02:53 | -7.36545 | 112.69761 | 1477 ft | 171 kts | 99° |
| 2026-05-09 02:53 | -7.36726 | 112.70886 | 1265 ft | 159 kts | 99° |
| 2026-05-09 02:54 | -7.36898 | 112.71952 | 1051 ft | 151 kts | 99° |
| 2026-05-09 02:54 | -7.37065 | 112.72990 | 873 ft | 150 kts | 99° |
| 2026-05-09 02:54 | -7.37232 | 112.74027 | 690 ft | 151 kts | 99° |
| 2026-05-09 02:54 | -7.37400 | 112.75068 | 507 ft | 150 kts | 99° |
| 2026-05-09 02:55 | -7.37569 | 112.76101 | 317 ft | 149 kts | 99° |
| 2026-05-09 02:55 | -7.37730 | 112.77117 | 73 ft | 143 kts | 98° |
| 2026-05-09 02:55 | -7.37879 | 112.78051 | 10 ft | 122 kts | 98° |
| 2026-05-09 02:55 | -7.37989 | 112.78744 | 9 ft | 78 kts | 99° |
| 2026-05-09 02:56 | -7.38044 | 112.79076 | 10 ft | 16 kts | 99° |
| 2026-05-09 02:56 | -7.38046 | 112.79201 | 10 ft | 18 kts | 79° |
| 2026-05-09 02:56 | -7.38012 | 112.79319 | 9 ft | 17 kts | 69° |
| 2026-05-09 02:56 | -7.37980 | 112.79391 | 8 ft | 2 kts | 56° |
| 2026-05-09 02:57 | -7.37979 | 112.79393 | 8 ft | 0 kts | 52° |
| 2026-05-09 02:57 | -7.37970 | 112.79399 | 9 ft | 5 kts | 31° |
| 2026-05-09 02:58 | -7.37965 | 112.79400 | 9 ft | 0 kts | 15° |
| 2026-05-09 02:58 | -7.37940 | 112.79400 | 8 ft | 6 kts | 344° |
| 2026-05-09 02:59 | -7.37921 | 112.79401 | 9 ft | 4 kts | 18° |
| 2026-05-09 02:59 | -7.37851 | 112.79425 | 8 ft | 12 kts | 13° |
| 2026-05-09 02:59 | -7.37788 | 112.79436 | 10 ft | 9 kts | 8° |
| 2026-05-09 02:59 | -7.37729 | 112.79445 | 8 ft | 9 kts | 9° |
| 2026-05-09 03:00 | -7.37684 | 112.79440 | 8 ft | 6 kts | 315° |
| 2026-05-09 03:00 | -7.37670 | 112.79402 | 8 ft | 7 kts | 281° |
| 2026-05-09 03:00 | -7.37663 | 112.79365 | 8 ft | 0 kts | 279° |
| 2026-05-09 03:00 | -7.37650 | 112.79339 | 9 ft | 6 kts | 330° |
| 2026-05-09 03:01 | -7.37607 | 112.79341 | 8 ft | 6 kts | 7° |
| 2026-05-09 03:01 | -7.37595 | 112.79343 | 9 ft | 1 kts | 8° |
| 2026-05-09 03:01 | -7.37590 | 112.79344 | 10 ft | 1 kts | 9° |
| 2026-05-09 03:01 | -7.37579 | 112.79345 | 9 ft | 3 kts | 9° |
| 2026-05-09 03:02 | -7.37571 | 112.79347 | 8 ft | 0 kts | 9° |
| 2026-05-09 03:02 | -7.37570 | 112.79347 | 8 ft | 0 kts | 9° |